Terminal Aerodrome Forecast
Issued by NWS

Home | Current Version | Previous Version | Text Only | Print | Product List | Glossary On
Versions: 1 2 3 4 5 6 7 8 9 10 11 12 13 14 15 16 17 18 19 20 21 22 23 24 25
000
FTUS43 KLOT 230534
TAFGYY
TAF
KGYY 230534Z 2306/2406 20008KT P6SM SKC
     FM230800 26008KT P6SM SKC
     FM231100 30008KT P6SM SCT250
     FM231330 02012G18KT P6SM OVC004
     FM231700 03012G20KT P6SM OVC007
     FM232100 03012KT P6SM BKN015
     FM240200 04014KT 4SM -SHRA BR OVC007=

USA.gov is the U.S. government's official web portal to all federal, state and local government web resources and services.